Terminal Aerodrome Forecast
Issued by NWS Greer, SC

Home | Current Version | Previous Version | Text Only | Print | Product List | Glossary On
Versions: 1 2 3 4 5 6 7 8 9 10 11 12 13 14 15 16 17
000
FTUS42 KGSP 251722
TAFAVL
TAF
KAVL 251722Z 2518/2618 26004KT P6SM SCT050
     FM251900 25005KT P6SM VCTS BKN050CB
     FM260100 VRB03KT P6SM SCT060 BKN250
      TEMPO 2608/2612 4SM BR SCT005
     FM261600 31004KT P6SM SCT045 PROB30 2616/2618 4SM -TSRA
      BKN045CB=

USA.gov is the U.S. government's official web portal to all federal, state and local government web resources and services.